Time;durP1;ratioP1;P1;durP2;ratioP2;P2;SDS_P1;SDS_P2;PMS_P1;PMS_P2;Temp;Humidity;BMP_temperature;BMP_pressure;BME280_temperature;BME280_humidity;BME280_pressure;Samples;Min_cycle;Max_cycle;Signal;HPM_P1;HPM_P2
2021/12/02 00:01:40;;;;;;;2.08;1.02;;;17.80;58.90;;;;;;5047621;28;45568;-78
2021/12/02 00:04:07;;;;;;;1.40;0.73;;;17.80;59.10;;;;;;5046294;28;45272;-78
2021/12/02 00:06:36;;;;;;;3.10;0.90;;;17.80;59.00;;;;;;5047841;28;45417;-78
2021/12/02 00:09:03;;;;;;;1.20;0.90;;;17.80;58.90;;;;;;5046938;28;48117;-78
2021/12/02 00:11:31;;;;;;;2.03;0.90;;;17.80;59.00;;;;;;5040136;28;45233;-78
2021/12/02 00:14:10;;;;;;;1.77;1.10;;;17.80;59.00;;;;;;5050717;28;45260;-78
2021/12/02 00:16:40;;;;;;;1.38;0.93;;;17.80;58.90;;;;;;5048179;28;45220;-78
2021/12/02 00:22:00;;;;;;;2.80;1.08;;;17.80;58.80;;;;;;5051300;28;45352;-78
2021/12/02 00:24:34;;;;;;;1.17;1.00;;;17.80;58.80;;;;;;5032232;28;45292;-78
2021/12/02 00:27:05;;;;;;;1.25;0.70;;;17.80;58.70;;;;;;5050403;28;45157;-77
2021/12/02 00:29:34;;;;;;;1.77;0.73;;;17.80;58.70;;;;;;5051182;28;48105;-78
2021/12/02 00:32:08;;;;;;;1.58;0.73;;;17.80;58.60;;;;;;5046589;28;45601;-79
2021/12/02 00:34:42;;;;;;;2.72;0.80;;;17.80;58.70;;;;;;5047164;28;45299;-78
2021/12/02 00:37:10;;;;;;;0.93;0.80;;;17.80;58.50;;;;;;5031115;28;45313;-78
2021/12/02 00:39:38;;;;;;;1.85;1.15;;;17.80;58.30;;;;;;5050477;28;45437;-78
2021/12/02 00:42:06;;;;;;;1.15;0.90;;;17.80;58.40;;;;;;5050857;28;45422;-78
2021/12/02 00:44:36;;;;;;;1.48;0.88;;;17.80;58.50;;;;;;5049945;28;45226;-78
2021/12/02 00:47:04;;;;;;;1.05;0.93;;;17.80;58.40;;;;;;5045261;28;45138;-78
2021/12/02 00:49:32;;;;;;;1.48;0.90;;;17.80;58.30;;;;;;5048950;28;46133;-78
2021/12/02 00:52:03;;;;;;;3.38;0.95;;;17.80;58.30;;;;;;5043939;28;45330;-78
2021/12/02 00:54:31;;;;;;;1.85;0.77;;;17.80;58.40;;;;;;5044184;28;45400;-78
2021/12/02 00:56:58;;;;;;;2.25;0.77;;;17.80;58.30;;;;;;5050693;28;45312;-78
2021/12/02 00:59:30;;;;;;;1.17;0.73;;;17.80;58.30;;;;;;5049842;28;48545;-78
2021/12/02 01:01:59;;;;;;;1.83;0.80;;;17.80;58.40;;;;;;5049397;28;45231;-78
2021/12/02 01:04:29;;;;;;;2.35;1.10;;;17.80;58.10;;;;;;5049322;28;45345;-78
2021/12/02 01:06:56;;;;;;;2.53;0.77;;;17.80;58.30;;;;;;5058838;28;45439;-79
2021/12/02 01:09:24;;;;;;;1.40;0.82;;;17.80;58.10;;;;;;5049294;28;47750;-78
2021/12/02 01:11:54;;;;;;;1.10;0.75;;;17.80;57.80;;;;;;5050272;28;45261;-79
2021/12/02 01:14:21;;;;;;;2.13;1.00;;;17.80;57.80;;;;;;5050437;28;45281;-78
2021/12/02 01:16:48;;;;;;;1.98;0.70;;;17.80;59.00;;;;;;5030854;28;45340;-78
2021/12/02 01:19:18;;;;;;;1.73;0.90;;;17.80;57.90;;;;;;5048573;28;46255;-78
2021/12/02 01:21:45;;;;;;;1.35;0.88;;;17.80;57.70;;;;;;5046796;28;45388;-79
2021/12/02 01:24:18;;;;;;;2.13;1.00;;;17.80;57.60;;;;;;5049045;28;45241;-78
2021/12/02 01:26:51;;;;;;;2.03;0.95;;;17.80;57.70;;;;;;5048817;28;45225;-78
2021/12/02 01:29:20;;;;;;;3.67;1.00;;;17.80;57.60;;;;;;5043421;28;47717;-78
2021/12/02 01:31:52;;;;;;;1.90;0.65;;;17.80;57.70;;;;;;5050032;28;45680;-78
2021/12/02 01:34:24;;;;;;;2.58;0.80;;;17.80;57.60;;;;;;5045744;28;45217;-78
2021/12/02 01:36:53;;;;;;;1.80;1.38;;;17.80;57.60;;;;;;5042989;28;45480;-78
2021/12/02 01:39:21;;;;;;;1.10;0.77;;;17.80;57.50;;;;;;5048134;28;46211;-78
2021/12/02 01:41:50;;;;;;;1.67;0.95;;;17.80;57.40;;;;;;5049358;28;46716;-78
2021/12/02 01:44:20;;;;;;;1.48;0.90;;;17.80;57.50;;;;;;5048996;28;45502;-78
2021/12/02 01:46:49;;;;;;;1.52;0.90;;;17.80;57.40;;;;;;5049521;28;45233;-78
2021/12/02 01:49:17;;;;;;;1.67;1.02;;;17.80;57.30;;;;;;5049497;28;46306;-79
2021/12/02 01:51:47;;;;;;;1.10;0.73;;;17.80;57.50;;;;;;5047257;28;45339;-79
2021/12/02 01:54:19;;;;;;;1.45;0.60;;;17.80;57.50;;;;;;5050973;28;45293;-79
2021/12/02 01:56:48;;;;;;;1.60;0.90;;;17.80;57.10;;;;;;5049891;28;45466;-78
2021/12/02 01:59:18;;;;;;;1.15;0.80;;;17.80;57.20;;;;;;5047996;28;47340;-78
2021/12/02 02:01:50;;;;;;;2.20;1.08;;;17.80;57.10;;;;;;5049014;28;45360;-78
2021/12/02 02:04:18;;;;;;;2.05;1.00;;;17.80;57.00;;;;;;5048130;28;45608;-78
2021/12/02 02:06:56;;;;;;;2.17;1.20;;;17.80;57.20;;;;;;5047722;28;45425;-78
2021/12/02 02:09:25;;;;;;;1.98;1.00;;;17.80;57.50;;;;;;5047696;28;48387;-79
2021/12/02 02:11:53;;;;;;;1.55;1.10;;;17.80;57.20;;;;;;5048555;28;45363;-78
2021/12/02 02:14:22;;;;;;;2.15;0.90;;;17.80;57.00;;;;;;5029307;28;45301;-78
2021/12/02 02:16:52;;;;;;;1.20;0.80;;;17.80;57.00;;;;;;5041588;28;45424;-79
2021/12/02 02:19:20;;;;;;;1.58;0.90;;;17.80;56.90;;;;;;5032248;28;46455;-78
2021/12/02 02:21:48;;;;;;;2.17;0.90;;;17.80;57.10;;;;;;5045061;28;45368;-78
2021/12/02 02:24:17;;;;;;;1.80;0.93;;;17.80;57.40;;;;;;5047913;28;45262;-78
2021/12/02 02:26:45;;;;;;;2.10;0.90;;;17.80;57.70;;;;;;5048677;28;45372;-79
2021/12/02 02:29:15;;;;;;;2.42;0.80;;;17.80;57.80;;;;;;5048959;28;47370;-79
2021/12/02 02:31:44;;;;;;;1.83;0.70;;;17.90;57.90;;;;;;5048498;28;45296;-79
2021/12/02 02:34:12;;;;;;;1.67;0.90;;;17.90;57.80;;;;;;5047113;28;45257;-79
2021/12/02 02:36:50;;;;;;;0.85;0.65;;;17.90;57.60;;;;;;5038394;28;45416;-79
2021/12/02 02:39:20;;;;;;;1.85;0.90;;;17.90;57.70;;;;;;5036722;28;47428;-79
2021/12/02 02:41:54;;;;;;;1.48;0.77;;;17.90;58.00;;;;;;5048784;28;45368;-79
2021/12/02 02:44:22;;;;;;;1.08;0.80;;;17.90;58.20;;;;;;5048297;28;45423;-79
2021/12/02 02:46:50;;;;;;;1.55;0.75;;;17.90;58.20;;;;;;5046889;28;45477;-79
2021/12/02 02:49:18;;;;;;;2.38;1.00;;;17.90;58.40;;;;;;5043211;28;47066;-79
2021/12/02 02:51:48;;;;;;;0.70;0.68;;;17.90;58.50;;;;;;5047598;28;45366;-79
2021/12/02 02:54:17;;;;;;;0.98;0.68;;;17.90;58.70;;;;;;5039808;28;45225;-79
2021/12/02 02:56:53;;;;;;;1.98;0.80;;;17.90;58.70;;;;;;5044971;28;45297;-79
2021/12/02 02:59:29;;;;;;;1.85;0.70;;;17.90;59.00;;;;;;5043499;28;47037;-79
2021/12/02 03:02:07;;;;;;;1.65;0.70;;;17.90;59.00;;;;;;5043256;28;46133;-80
2021/12/02 03:04:42;;;;;;;0.75;0.60;;;17.90;58.80;;;;;;5047186;28;45231;-79
2021/12/02 03:07:17;;;;;;;1.10;0.63;;;17.90;58.80;;;;;;5047694;28;45216;-79
2021/12/02 03:09:54;;;;;;;1.25;0.80;;;17.90;58.90;;;;;;5048463;28;45307;-79
2021/12/02 03:12:30;;;;;;;0.95;0.70;;;17.90;58.90;;;;;;5029107;28;45562;-79
2021/12/02 03:17:44;;;;;;;1.20;0.70;;;17.90;59.20;;;;;;5044178;28;45220;-80
2021/12/02 03:20:15;;;;;;;0.70;0.68;;;17.90;59.40;;;;;;5046988;28;47166;-80
2021/12/02 03:22:47;;;;;;;1.67;0.63;;;17.90;60.70;;;;;;5041388;28;45157;-80
2021/12/02 03:25:20;;;;;;;1.42;0.70;;;17.90;59.90;;;;;;5029728;28;45443;-80
2021/12/02 03:27:57;;;;;;;2.10;0.88;;;17.90;60.00;;;;;;5028700;28;47216;-80
2021/12/02 03:30:24;;;;;;;1.27;0.80;;;17.90;60.00;;;;;;5047778;28;47417;-80
2021/12/02 03:32:51;;;;;;;0.93;0.80;;;17.90;59.80;;;;;;5046886;28;45192;-80
2021/12/02 03:35:20;;;;;;;2.05;0.70;;;17.90;59.60;;;;;;5047273;28;45376;-80
2021/12/02 03:37:48;;;;;;;1.70;0.75;;;17.90;59.60;;;;;;5044524;28;45237;-80
2021/12/02 03:40:15;;;;;;;1.45;0.85;;;17.90;59.40;;;;;;5046535;28;48798;-80
2021/12/02 03:42:52;;;;;;;1.33;0.60;;;17.80;59.20;;;;;;5030002;28;45244;-80
2021/12/02 03:48:06;;;;;;;0.88;0.63;;;17.80;59.30;;;;;;5048533;28;45321;-80
2021/12/02 03:50:36;;;;;;;1.15;0.57;;;17.80;59.40;;;;;;5046397;28;46321;-80
2021/12/02 03:53:06;;;;;;;0.68;0.50;;;17.80;59.20;;;;;;5046672;28;46124;-79
2021/12/02 03:55:36;;;;;;;0.52;0.40;;;17.90;59.20;;;;;;5046894;28;45208;-80
2021/12/02 03:58:07;;;;;;;1.27;0.60;;;17.80;58.90;;;;;;5047433;28;45413;-80
2021/12/02 04:00:35;;;;;;;1.17;0.60;;;17.80;58.80;;;;;;5047382;28;48481;-80
2021/12/02 04:03:04;;;;;;;0.85;0.50;;;17.80;58.70;;;;;;5046639;28;46642;-80
2021/12/02 04:05:32;;;;;;;0.40;0.30;;;17.80;58.70;;;;;;5047401;28;45434;-80
2021/12/02 04:08:00;;;;;;;0.45;0.40;;;17.80;58.80;;;;;;5047790;28;45487;-80
2021/12/02 04:10:30;;;;;;;1.05;0.50;;;17.80;58.80;;;;;;5044720;28;47402;-80
2021/12/02 04:13:05;;;;;;;0.63;0.38;;;17.80;58.70;;;;;;5048228;28;45585;-80
2021/12/02 04:15:37;;;;;;;0.98;0.50;;;17.80;58.50;;;;;;5048130;28;45213;-80
2021/12/02 04:18:05;;;;;;;0.95;0.32;;;17.80;58.40;;;;;;5044539;28;45486;-80
2021/12/02 04:20:36;;;;;;;1.17;0.50;;;17.80;59.00;;;;;;5046345;28;47310;-80
2021/12/02 04:23:04;;;;;;;0.60;0.40;;;17.80;58.90;;;;;;5047329;28;45569;-80
2021/12/02 04:25:32;;;;;;;0.40;0.30;;;17.80;59.10;;;;;;5047533;28;45366;-80
2021/12/02 04:27:59;;;;;;;0.50;0.30;;;17.80;59.10;;;;;;5047425;28;45280;-80
2021/12/02 04:30:28;;;;;;;0.52;0.20;;;17.80;59.20;;;;;;5046258;28;45505;-80
2021/12/02 04:32:57;;;;;;;0.82;0.40;;;17.80;58.00;;;;;;5045264;28;45266;-80
2021/12/02 04:35:29;;;;;;;0.32;0.30;;;17.80;57.70;;;;;;5046800;28;45273;-79
2021/12/02 04:37:59;;;;;;;0.57;0.43;;;17.80;57.60;;;;;;5045808;28;45336;-79
2021/12/02 04:40:26;;;;;;;1.10;0.40;;;17.80;56.70;;;;;;5047131;28;46711;-79
2021/12/02 04:42:55;;;;;;;1.05;0.73;;;17.80;56.80;;;;;;5047815;28;45716;-79
2021/12/02 04:45:22;;;;;;;1.23;0.73;;;17.80;56.60;;;;;;5047738;28;45313;-79
2021/12/02 04:47:50;;;;;;;1.27;0.60;;;17.80;56.20;;;;;;5042209;28;45304;-79
2021/12/02 04:50:22;;;;;;;1.30;0.60;;;17.80;56.20;;;;;;5037968;28;46588;-80
2021/12/02 04:52:50;;;;;;;1.00;0.70;;;17.80;56.10;;;;;;5044261;28;45213;-79
2021/12/02 04:55:18;;;;;;;1.42;0.75;;;17.80;56.20;;;;;;5043596;28;45219;-79
2021/12/02 04:57:46;;;;;;;1.60;0.77;;;17.80;56.40;;;;;;5042424;28;45175;-79
2021/12/02 05:00:16;;;;;;;1.45;0.73;;;17.80;56.00;;;;;;5032212;28;47497;-79
2021/12/02 05:02:43;;;;;;;2.20;0.73;;;17.80;56.20;;;;;;5051084;28;45577;-79
2021/12/02 05:05:12;;;;;;;1.85;0.90;;;17.80;55.70;;;;;;5049277;28;45411;-79
2021/12/02 05:07:42;;;;;;;1.02;0.73;;;17.80;55.50;;;;;;5051025;28;45134;-79
2021/12/02 05:10:10;;;;;;;2.08;0.80;;;17.80;55.40;;;;;;5050139;28;47946;-79
2021/12/02 05:12:38;;;;;;;1.92;0.90;;;17.80;55.50;;;;;;5030345;28;45369;-78
2021/12/02 05:17:47;;;;;;;0.65;0.60;;;17.80;55.50;;;;;;5174176;22;45701;-80
2021/12/02 05:20:14;;;;;;;1.85;0.73;;;17.80;55.30;;;;;;5048931;28;46647;-78
2021/12/02 05:22:43;;;;;;;0.93;0.40;;;17.70;55.40;;;;;;5051569;28;44621;-78
2021/12/02 05:25:10;;;;;;;1.73;0.75;;;17.70;55.10;;;;;;5052298;28;44609;-79
2021/12/02 05:27:37;;;;;;;1.77;0.60;;;17.70;55.40;;;;;;5051229;28;44753;-79
2021/12/02 05:30:05;;;;;;;2.30;0.85;;;17.70;54.90;;;;;;5049120;28;46841;-79
2021/12/02 05:32:32;;;;;;;0.85;0.63;;;17.70;55.50;;;;;;5049616;28;44713;-79
2021/12/02 05:34:59;;;;;;;1.25;0.60;;;17.70;55.50;;;;;;5050981;28;44671;-79
2021/12/02 05:37:26;;;;;;;1.50;0.60;;;17.70;55.60;;;;;;5051687;28;44860;-79
2021/12/02 05:39:55;;;;;;;1.17;0.60;;;17.70;54.90;;;;;;5042948;28;46984;-79
2021/12/02 05:42:21;;;;;;;1.10;0.63;;;17.80;55.20;;;;;;5044198;28;44708;-79
2021/12/02 05:44:48;;;;;;;1.52;0.85;;;17.80;55.40;;;;;;5049455;28;44687;-79
2021/12/02 05:47:15;;;;;;;1.20;0.60;;;17.80;55.20;;;;;;5052029;28;44806;-79
2021/12/02 05:49:42;;;;;;;1.25;0.60;;;17.80;54.60;;;;;;5051963;28;46601;-79
2021/12/02 05:52:09;;;;;;;2.53;0.60;;;17.80;54.40;;;;;;5051479;28;44606;-79
2021/12/02 05:54:36;;;;;;;1.58;0.80;;;17.80;54.40;;;;;;5045907;28;44697;-80
2021/12/02 05:57:05;;;;;;;1.40;0.70;;;17.80;53.80;;;;;;5052344;28;44949;-80
2021/12/02 05:59:32;;;;;;;1.75;0.90;;;17.70;53.60;;;;;;5050589;28;45234;-79
2021/12/02 06:01:59;;;;;;;1.50;0.70;;;17.70;53.50;;;;;;5052141;28;44923;-79
2021/12/02 06:04:26;;;;;;;2.05;0.60;;;17.70;53.30;;;;;;5050431;28;44855;-79
2021/12/02 06:06:53;;;;;;;3.78;0.60;;;17.70;53.50;;;;;;5051487;28;44700;-80
2021/12/02 06:09:19;;;;;;;1.63;0.63;;;17.70;53.40;;;;;;5050025;28;46351;-79
2021/12/02 06:11:47;;;;;;;0.98;0.60;;;17.70;53.30;;;;;;5045760;28;44724;-80
2021/12/02 06:14:17;;;;;;;1.30;0.60;;;17.60;52.70;;;;;;5049816;28;44621;-79
2021/12/02 06:16:44;;;;;;;1.23;0.68;;;17.60;52.70;;;;;;5043978;28;44801;-79
2021/12/02 06:19:11;;;;;;;0.40;0.40;;;17.60;52.90;;;;;;5048704;28;46766;-79
2021/12/02 06:21:38;;;;;;;0.57;0.50;;;17.60;53.10;;;;;;5042776;28;44638;-79
2021/12/02 06:24:07;;;;;;;1.02;0.40;;;17.60;53.00;;;;;;5050505;28;44999;-77
2021/12/02 06:26:34;;;;;;;3.75;0.68;;;17.60;53.90;;;;;;5050829;28;44870;-81
2021/12/02 06:29:01;;;;;;;2.85;0.68;;;17.60;55.90;;;;;;5050145;28;47293;-79
2021/12/02 06:31:29;;;;;;;1.38;0.50;;;17.70;55.00;;;;;;5049440;28;45251;-80
2021/12/02 06:33:56;;;;;;;1.73;0.40;;;17.70;55.70;;;;;;5050154;28;44947;-80
2021/12/02 06:36:22;;;;;;;1.02;0.57;;;17.70;56.00;;;;;;5050262;28;45866;-80
2021/12/02 06:38:49;;;;;;;1.58;0.60;;;17.70;56.10;;;;;;5045827;28;45429;-80
2021/12/02 06:41:18;;;;;;;2.05;0.88;;;17.70;55.90;;;;;;5042287;28;44672;-80
2021/12/02 06:43:45;;;;;;;1.55;0.50;;;17.70;55.90;;;;;;5040834;28;45078;-79
2021/12/02 06:46:12;;;;;;;1.00;0.45;;;17.70;56.10;;;;;;5048639;28;44922;-80
2021/12/02 06:48:40;;;;;;;1.50;0.50;;;17.70;56.00;;;;;;5048578;28;47320;-81
2021/12/02 06:51:09;;;;;;;3.10;0.80;;;17.70;56.40;;;;;;5043514;28;44819;-81
2021/12/02 06:53:36;;;;;;;2.05;0.80;;;17.70;56.40;;;;;;5050124;28;44775;-80
2021/12/02 06:56:03;;;;;;;0.73;0.60;;;17.70;56.60;;;;;;5050072;28;44700;-80
2021/12/02 06:58:30;;;;;;;2.55;0.90;;;17.70;56.50;;;;;;5051183;28;46336;-80
2021/12/02 07:00:57;;;;;;;3.13;0.65;;;17.80;56.20;;;;;;5050038;28;44606;-80
2021/12/02 07:03:23;;;;;;;0.93;0.63;;;17.80;56.10;;;;;;5050786;28;44633;-79
2021/12/02 07:05:51;;;;;;;1.40;0.60;;;17.80;55.90;;;;;;5051400;28;44781;-79
2021/12/02 07:08:19;;;;;;;1.13;0.68;;;17.80;55.70;;;;;;5050604;28;46319;-80
2021/12/02 07:10:46;;;;;;;1.38;0.70;;;17.80;55.50;;;;;;5050676;28;44838;-80
2021/12/02 07:13:13;;;;;;;1.23;0.70;;;17.80;55.60;;;;;;5051272;28;44593;-81
2021/12/02 07:15:44;;;;;;;1.98;0.80;;;17.80;55.80;;;;;;5050149;28;44676;-80
2021/12/02 07:18:13;;;;;;;0.88;0.50;;;17.80;56.10;;;;;;5044326;28;45419;-80
2021/12/02 07:20:42;;;;;;;2.03;0.80;;;17.90;56.20;;;;;;5042699;28;44655;-81
2021/12/02 07:23:11;;;;;;;2.67;0.70;;;17.90;56.30;;;;;;5049879;28;44695;-81
2021/12/02 07:25:40;;;;;;;1.60;0.70;;;17.80;56.10;;;;;;5050913;28;45033;-81
2021/12/02 07:28:06;;;;;;;0.77;0.60;;;17.80;56.20;;;;;;5049055;28;46856;-81
2021/12/02 07:30:33;;;;;;;1.83;0.60;;;17.80;56.30;;;;;;5049415;28;44882;-82
2021/12/02 07:33:01;;;;;;;0.63;0.50;;;17.90;56.40;;;;;;5040657;28;45259;-80
2021/12/02 07:35:28;;;;;;;0.93;0.52;;;17.80;56.40;;;;;;5040211;28;44922;-76
2021/12/02 07:37:58;;;;;;;0.40;0.40;;;17.90;56.80;;;;;;5044681;28;45502;-76
2021/12/02 07:40:28;;;;;;;1.98;0.63;;;17.90;56.70;;;;;;5049148;28;45046;-76
2021/12/02 07:42:55;;;;;;;1.10;0.50;;;17.90;56.30;;;;;;5042474;28;44668;-76
2021/12/02 07:45:26;;;;;;;1.27;0.60;;;17.90;56.10;;;;;;5047354;28;44882;-76
2021/12/02 07:47:53;;;;;;;1.45;0.80;;;17.90;56.10;;;;;;5049827;28;46555;-76
2021/12/02 07:50:21;;;;;;;0.88;0.47;;;17.90;56.20;;;;;;5050036;28;44994;-77
2021/12/02 07:52:51;;;;;;;2.17;0.47;;;17.90;56.20;;;;;;5042044;28;44894;-77
2021/12/02 07:55:19;;;;;;;0.17;0.10;;;17.90;55.70;;;;;;5047592;28;44886;-77
2021/12/02 07:57:47;;;;;;;0.95;0.32;;;17.90;55.80;;;;;;5039909;28;45086;-77
2021/12/02 08:00:17;;;;;;;0.88;0.40;;;17.90;55.50;;;;;;5045748;28;44667;-77
2021/12/02 08:02:45;;;;;;;0.55;0.20;;;17.90;55.40;;;;;;5042437;28;44633;-77
2021/12/02 08:05:13;;;;;;;0.90;0.32;;;17.90;54.90;;;;;;5050107;28;44695;-77
2021/12/02 08:07:40;;;;;;;1.85;0.57;;;17.90;55.10;;;;;;5049512;28;46302;-77
2021/12/02 08:10:08;;;;;;;4.05;0.40;;;17.80;55.50;;;;;;5049668;28;44625;-76
2021/12/02 08:12:36;;;;;;;0.50;0.32;;;17.80;55.30;;;;;;5045447;28;44764;-76
2021/12/02 08:15:06;;;;;;;0.40;0.30;;;17.80;54.80;;;;;;5045220;28;45872;-76
2021/12/02 08:17:33;;;;;;;0.30;0.30;;;17.80;54.70;;;;;;5040787;28;45724;-77
2021/12/02 08:19:59;;;;;;;0.93;0.35;;;17.80;54.40;;;;;;5045355;28;45046;-77
2021/12/02 08:22:27;;;;;;;0.30;0.30;;;17.80;54.50;;;;;;5045460;28;44751;-77
2021/12/02 08:24:54;;;;;;;1.33;0.40;;;17.80;53.50;;;;;;5046334;28;44673;-77
2021/12/02 08:27:22;;;;;;;0.68;0.40;;;17.80;53.40;;;;;;5048649;28;46611;-77
2021/12/02 08:29:49;;;;;;;0.63;0.45;;;17.80;52.40;;;;;;5043135;28;44763;-77
2021/12/02 08:32:18;;;;;;;0.85;0.52;;;17.80;52.80;;;;;;5048214;28;44824;-77
2021/12/02 08:34:45;;;;;;;1.08;0.60;;;17.80;53.40;;;;;;5052051;28;44761;-77
2021/12/02 08:37:12;;;;;;;0.80;0.20;;;17.80;52.60;;;;;;5049270;28;46682;-77
2021/12/02 08:39:41;;;;;;;0.77;0.35;;;17.80;53.10;;;;;;5051132;28;44741;-77
2021/12/02 08:42:09;;;;;;;0.77;0.28;;;17.80;52.00;;;;;;5047315;28;44693;-77
2021/12/02 08:44:39;;;;;;;0.85;0.40;;;17.80;52.00;;;;;;5049630;28;45971;-77
2021/12/02 08:47:08;;;;;;;0.10;0.10;;;17.80;52.70;;;;;;5045983;28;46543;-77
2021/12/02 08:49:36;;;;;;;0.68;0.30;;;17.90;52.20;;;;;;5048121;28;44703;-77
2021/12/02 08:52:04;;;;;;;0.57;0.20;;;17.90;51.70;;;;;;5045706;28;44629;-77
2021/12/02 08:54:30;;;;;;;0.20;0.20;;;17.80;51.40;;;;;;5052410;28;44794;-77
2021/12/02 08:56:57;;;;;;;0.75;0.22;;;17.80;51.50;;;;;;5053360;28;46606;-77
2021/12/02 08:59:24;;;;;;;0.77;0.30;;;17.80;51.50;;;;;;5051782;28;44631;-77
2021/12/02 09:01:51;;;;;;;0.40;0.20;;;17.80;51.40;;;;;;5052928;28;44702;-77
2021/12/02 09:04:17;;;;;;;0.30;0.30;;;17.80;51.70;;;;;;5053188;28;44756;-77
2021/12/02 09:06:46;;;;;;;0.77;0.40;;;17.80;51.40;;;;;;5045275;28;46843;-77
2021/12/02 09:09:12;;;;;;;0.20;0.20;;;17.80;51.40;;;;;;5046047;28;44795;-77
2021/12/02 09:11:39;;;;;;;0.50;0.20;;;17.80;51.30;;;;;;5052154;28;44958;-77
2021/12/02 09:14:06;;;;;;;0.85;0.28;;;17.80;51.10;;;;;;5052574;28;44756;-76
2021/12/02 09:16:33;;;;;;;0.57;0.30;;;17.90;50.90;;;;;;5051616;28;45479;-77
2021/12/02 09:19:00;;;;;;;0.50;0.25;;;17.90;51.00;;;;;;5048669;28;44708;-76
2021/12/02 09:21:29;;;;;;;0.47;0.22;;;17.90;50.90;;;;;;5052526;28;44545;-76
2021/12/02 09:23:57;;;;;;;0.30;0.30;;;17.90;50.70;;;;;;5052982;28;44916;-76
2021/12/02 09:26:24;;;;;;;1.45;0.50;;;17.90;50.80;;;;;;5051603;28;45157;-76
2021/12/02 09:28:54;;;;;;;0.93;0.35;;;17.90;50.70;;;;;;5051817;28;44707;-76
2021/12/02 09:31:22;;;;;;;0.88;0.50;;;17.90;50.60;;;;;;5049103;28;44695;-76
2021/12/02 09:33:49;;;;;;;0.63;0.50;;;17.90;51.60;;;;;;5048052;28;44958;-76
2021/12/02 09:36:17;;;;;;;0.73;0.47;;;17.90;50.30;;;;;;5046889;28;46747;-76
2021/12/02 09:38:45;;;;;;;0.95;0.60;;;17.90;50.30;;;;;;5051121;28;44727;-76
2021/12/02 09:41:13;;;;;;;0.47;0.47;;;17.90;50.20;;;;;;5050817;28;44936;-76
2021/12/02 09:43:41;;;;;;;1.10;0.73;;;17.90;50.30;;;;;;5051141;28;44816;-76
2021/12/02 09:46:08;;;;;;;1.10;0.77;;;17.90;50.10;;;;;;5050094;28;46403;-76
2021/12/02 09:48:35;;;;;;;1.50;0.82;;;17.90;50.20;;;;;;5051692;28;44929;-77
2021/12/02 09:51:07;;;;;;;1.10;0.90;;;17.90;50.30;;;;;;5051820;28;44712;-76
2021/12/02 09:53:39;;;;;;;1.35;0.80;;;17.90;50.20;;;;;;5052335;28;44723;-76
2021/12/02 09:56:15;;;;;;;1.00;0.90;;;17.90;50.20;;;;;;5051543;28;45679;-76
2021/12/02 09:58:43;;;;;;;1.10;0.75;;;17.90;50.00;;;;;;5049711;28;45254;-76
2021/12/02 10:01:12;;;;;;;1.05;0.75;;;17.90;49.90;;;;;;5051609;28;45085;-75
2021/12/02 10:03:40;;;;;;;1.08;0.80;;;17.90;49.90;;;;;;5052219;28;44692;-75
2021/12/02 10:06:08;;;;;;;1.38;0.68;;;17.90;49.90;;;;;;5049143;28;45532;-75
2021/12/02 10:08:42;;;;;;;1.77;0.85;;;17.90;49.80;;;;;;5041277;28;44632;-75
2021/12/02 10:11:12;;;;;;;1.25;0.90;;;17.90;49.60;;;;;;5045963;28;44755;-76
2021/12/02 10:13:46;;;;;;;0.82;0.65;;;17.90;49.60;;;;;;5043564;28;44772;-77
2021/12/02 10:16:21;;;;;;;2.75;1.10;;;17.90;49.60;;;;;;5049468;28;46545;-77
2021/12/02 10:18:57;;;;;;;0.93;0.75;;;18.00;49.60;;;;;;5046460;28;44865;-77
2021/12/02 10:21:28;;;;;;;2.13;1.00;;;18.00;49.80;;;;;;5050303;28;44757;-76
2021/12/02 10:23:55;;;;;;;1.13;0.77;;;18.00;49.60;;;;;;5046649;28;44847;-76
2021/12/02 10:26:23;;;;;;;1.15;0.90;;;18.00;49.60;;;;;;5050669;28;46730;-77
2021/12/02 10:28:52;;;;;;;1.15;0.80;;;17.90;49.30;;;;;;5051213;28;44700;-77
2021/12/02 10:31:26;;;;;;;1.13;0.90;;;17.90;49.30;;;;;;5051479;28;44645;-77
2021/12/02 10:34:02;;;;;;;1.98;0.90;;;17.90;49.50;;;;;;5044922;28;44904;-77
2021/12/02 10:36:31;;;;;;;1.92;0.80;;;17.80;49.30;;;;;;5046582;28;46591;-76
2021/12/02 10:39:00;;;;;;;2.15;0.80;;;17.80;49.40;;;;;;5047900;28;44736;-76
2021/12/02 10:41:31;;;;;;;0.95;0.80;;;17.80;49.40;;;;;;5048516;28;44946;-77
2021/12/02 10:44:24;;;;;;;1.05;0.90;;;17.80;49.30;;;;;;5047859;28;44783;-77
2021/12/02 10:47:00;;;;;;;1.55;0.98;;;17.80;49.40;;;;;;5041294;28;45456;-77
2021/12/02 10:49:29;;;;;;;1.30;0.70;;;17.80;49.40;;;;;;5044057;28;44957;-77
2021/12/02 10:52:00;;;;;;;1.73;0.80;;;17.70;49.30;;;;;;5042320;28;44625;-77
2021/12/02 10:54:28;;;;;;;2.35;1.00;;;17.70;49.70;;;;;;5044938;28;44895;-77
2021/12/02 10:56:58;;;;;;;6.75;1.20;;;17.70;49.60;;;;;;5049063;28;46606;-76
2021/12/02 10:59:27;;;;;;;4.60;1.20;;;17.80;49.60;;;;;;5044336;28;44803;-76
2021/12/02 11:01:57;;;;;;;2.03;0.80;;;17.80;49.60;;;;;;5045197;28;44627;-77
2021/12/02 11:04:24;;;;;;;2.40;0.90;;;17.80;49.40;;;;;;5043625;28;44763;-77
2021/12/02 11:06:56;;;;;;;3.83;0.80;;;17.80;49.20;;;;;;5050685;28;45422;-79
2021/12/02 11:09:27;;;;;;;2.20;1.00;;;17.80;50.00;;;;;;5049557;28;45166;-78
2021/12/02 11:12:17;;;;;;;3.55;1.10;;;17.80;52.00;;;;;;5051321;28;44929;-78
2021/12/02 11:14:56;;;;;;;3.28;1.05;;;17.90;52.10;;;;;;5050389;28;44738;-78
2021/12/02 11:17:29;;;;;;;2.25;1.00;;;18.00;53.30;;;;;;5045141;28;45190;-78
2021/12/02 11:19:56;;;;;;;3.13;0.88;;;18.20;53.30;;;;;;5044857;28;44737;-78
2021/12/02 11:22:23;;;;;;;1.88;1.20;;;18.40;52.60;;;;;;5048116;28;44743;-78
2021/12/02 11:24:52;;;;;;;1.90;0.70;;;18.60;52.80;;;;;;5039526;28;44798;-78
2021/12/02 11:27:21;;;;;;;1.38;0.73;;;18.80;53.00;;;;;;5047701;28;47016;-77
2021/12/02 11:29:56;;;;;;;1.75;0.70;;;19.00;53.20;;;;;;5049597;28;45072;-77
2021/12/02 11:32:31;;;;;;;1.80;0.70;;;19.20;53.40;;;;;;5051013;28;44680;-77
2021/12/02 11:35:04;;;;;;;1.48;0.80;;;19.30;53.50;;;;;;5049036;28;44787;-77
2021/12/02 11:37:32;;;;;;;1.98;0.68;;;19.50;53.70;;;;;;5049281;28;45436;-77
2021/12/02 11:40:04;;;;;;;1.27;0.80;;;19.60;53.80;;;;;;5049818;28;44675;-77
2021/12/02 11:42:32;;;;;;;2.00;0.90;;;19.70;53.90;;;;;;5042121;28;44886;-77
2021/12/02 11:44:59;;;;;;;1.30;0.70;;;19.90;54.00;;;;;;5049181;28;44914;-77
2021/12/02 11:47:27;;;;;;;1.20;0.75;;;19.90;54.10;;;;;;5048904;28;45413;-78
2021/12/02 11:49:54;;;;;;;1.92;0.75;;;20.00;54.20;;;;;;5049374;28;45229;-78
2021/12/02 11:52:21;;;;;;;2.10;0.95;;;20.10;54.30;;;;;;5048801;28;44683;-78
2021/12/02 11:54:48;;;;;;;1.63;0.68;;;20.20;54.40;;;;;;5046400;28;44794;-78
2021/12/02 11:57:15;;;;;;;1.30;0.70;;;20.20;53.80;;;;;;5050046;28;46847;-78
2021/12/02 11:59:42;;;;;;;1.50;0.63;;;20.30;54.50;;;;;;5050324;28;44585;-78
2021/12/02 12:02:10;;;;;;;1.65;0.93;;;20.20;54.40;;;;;;5049253;28;44647;-78
2021/12/02 12:04:39;;;;;;;3.45;1.05;;;20.30;53.80;;;;;;5050564;28;44835;-79
2021/12/02 12:07:11;;;;;;;2.65;1.00;;;20.40;54.60;;;;;;5052615;28;46891;-79
2021/12/02 12:09:38;;;;;;;2.70;1.15;;;20.50;54.70;;;;;;5053410;28;44749;-78
2021/12/02 12:12:06;;;;;;;3.63;0.95;;;20.40;53.30;;;;;;5053907;28;44751;-79
2021/12/02 12:14:36;;;;;;;6.47;1.17;;;20.50;53.50;;;;;;5051450;28;44784;-78
2021/12/02 12:17:09;;;;;;;3.40;1.08;;;20.50;53.20;;;;;;5053454;28;45857;-79
2021/12/02 12:19:42;;;;;;;2.55;1.00;;;20.40;52.90;;;;;;5049690;28;44750;-79
2021/12/02 12:22:11;;;;;;;3.17;0.90;;;20.40;51.90;;;;;;5051684;28;44924;-79
2021/12/02 12:24:40;;;;;;;1.52;0.80;;;20.30;51.70;;;;;;5053160;28;44804;-79
2021/12/02 12:27:11;;;;;;;3.47;0.80;;;20.00;50.80;;;;;;5052986;28;46629;-79
2021/12/02 12:29:38;;;;;;;2.28;0.93;;;19.60;50.80;;;;;;5053019;28;45167;-78
2021/12/02 12:32:41;;;;;;;1.58;0.88;;;19.50;51.00;;;;;;5052635;28;44676;-79
2021/12/02 12:35:18;;;;;;;3.15;0.75;;;19.30;51.10;;;;;;5037749;28;44721;-78
2021/12/02 12:37:51;;;;;;;2.38;0.80;;;19.20;51.10;;;;;;5038894;28;46461;-78
2021/12/02 12:40:21;;;;;;;4.35;0.88;;;19.00;50.70;;;;;;5052500;28;44707;-78
2021/12/02 12:42:51;;;;;;;1.27;0.52;;;19.00;50.70;;;;;;5052413;28;44648;-78
2021/12/02 12:45:28;;;;;;;1.60;0.47;;;18.90;50.60;;;;;;5050389;28;44712;-79
2021/12/02 12:47:57;;;;;;;1.95;0.88;;;18.90;50.70;;;;;;5052751;28;45732;-78
2021/12/02 12:50:32;;;;;;;1.55;0.68;;;18.80;50.50;;;;;;5050240;28;44741;-79
2021/12/02 12:53:22;;;;;;;1.77;0.50;;;18.80;50.50;;;;;;5041982;28;45146;-79
2021/12/02 12:56:10;;;;;;;1.95;0.68;;;18.70;50.30;;;;;;5047007;28;45127;-79
2021/12/02 12:58:39;;;;;;;2.88;0.60;;;18.70;50.20;;;;;;5052976;28;46680;-78
2021/12/02 13:01:18;;;;;;;1.38;0.63;;;18.60;50.00;;;;;;5052613;28;44691;-78
2021/12/02 13:04:02;;;;;;;2.55;0.73;;;18.60;50.00;;;;;;5051398;28;44733;-79
2021/12/02 13:06:49;;;;;;;1.13;0.80;;;18.60;50.00;;;;;;5051827;28;44736;-79
2021/12/02 13:09:54;;;;;;;1.30;0.68;;;18.50;49.90;;;;;;5041740;28;45260;-78
2021/12/02 13:12:27;;;;;;;3.63;0.77;;;18.50;49.70;;;;;;5034674;28;45150;-78